createdAt,value
2022-12-11T00:00:09.151Z,22
2022-12-11T00:01:13.265Z,21.98
2022-12-11T00:02:17.380Z,21.97
2022-12-11T00:03:21.814Z,21.98
2022-12-11T00:04:26.122Z,21.97
2022-12-11T00:05:30.227Z,21.96
2022-12-11T00:06:34.279Z,21.95
2022-12-11T00:07:38.366Z,21.97
2022-12-11T00:08:42.432Z,21.96
2022-12-11T00:09:46.497Z,21.96
2022-12-11T00:10:50.642Z,21.92
2022-12-11T00:11:54.717Z,21.94
2022-12-11T00:12:58.784Z,21.92
2022-12-11T00:14:02.844Z,21.92
2022-12-11T00:15:07.091Z,21.92
2022-12-11T00:16:12.639Z,21.91
2022-12-11T00:17:16.901Z,21.9
2022-12-11T00:18:20.949Z,21.89
2022-12-11T00:19:25.009Z,21.88
2022-12-11T00:20:29.106Z,21.89
2022-12-11T00:21:33.203Z,21.88
2022-12-11T00:22:37.251Z,21.89
2022-12-11T00:23:41.328Z,21.87
2022-12-11T00:24:45.398Z,21.86
2022-12-11T00:25:49.479Z,21.87
2022-12-11T00:26:53.565Z,21.84
2022-12-11T00:27:57.680Z,21.86
2022-12-11T00:29:01.778Z,21.83
2022-12-11T00:30:05.849Z,21.85
2022-12-11T00:31:09.919Z,21.85
2022-12-11T00:32:14.000Z,21.83
2022-12-11T00:33:18.294Z,21.84
2022-12-11T00:34:22.356Z,21.82
2022-12-11T00:35:26.446Z,21.81
2022-12-11T00:36:30.505Z,21.78
2022-12-11T00:37:34.580Z,21.79
2022-12-11T00:38:38.949Z,21.78
2022-12-11T00:39:43.029Z,21.78
2022-12-11T00:40:47.101Z,21.77
2022-12-11T00:41:51.200Z,21.75
2022-12-11T00:42:55.268Z,21.77
2022-12-11T00:43:59.334Z,21.75
2022-12-11T00:45:03.383Z,21.74
2022-12-11T00:46:07.508Z,21.75
2022-12-11T00:47:12.032Z,21.73
2022-12-11T00:48:16.080Z,21.7
2022-12-11T00:49:20.152Z,21.67
2022-12-11T00:50:24.222Z,21.67
2022-12-11T00:51:28.314Z,21.67
2022-12-11T00:52:32.418Z,21.67
2022-12-11T00:53:36.474Z,21.67
2022-12-11T00:54:40.560Z,21.67
2022-12-11T00:55:44.625Z,21.69
2022-12-11T00:56:48.696Z,21.69
2022-12-11T00:57:52.777Z,21.67
2022-12-11T00:58:56.870Z,21.66
2022-12-11T01:00:00.980Z,21.67
2022-12-11T01:01:05.202Z,21.67
2022-12-11T01:02:09.501Z,21.65
2022-12-11T01:03:13.756Z,21.66
2022-12-11T01:04:18.137Z,21.65
2022-12-11T01:05:22.195Z,21.63
2022-12-11T01:06:26.386Z,21.64
2022-12-11T01:07:30.521Z,21.64
2022-12-11T01:08:38.427Z,21.64
2022-12-11T01:09:42.819Z,21.62
2022-12-11T01:10:46.993Z,21.61
2022-12-11T01:11:51.290Z,21.6
2022-12-11T01:12:55.415Z,21.6
2022-12-11T01:13:59.486Z,21.61
2022-12-11T01:15:03.548Z,21.59
2022-12-11T01:16:07.661Z,21.59
2022-12-11T01:17:11.768Z,21.52
2022-12-11T01:18:15.815Z,21.59
2022-12-11T01:19:19.876Z,21.58
2022-12-11T01:20:23.924Z,21.56
2022-12-11T01:21:27.990Z,21.57
2022-12-11T01:22:32.089Z,21.57
2022-12-11T01:23:36.175Z,21.55
2022-12-11T01:24:40.253Z,21.57
2022-12-11T01:25:44.347Z,21.55
2022-12-11T01:26:48.408Z,21.55
2022-12-11T01:27:52.485Z,21.54
2022-12-11T01:28:56.571Z,21.53
2022-12-11T01:30:00.649Z,21.54
2022-12-11T01:31:04.744Z,21.54
2022-12-11T01:32:09.063Z,21.52
2022-12-11T01:33:13.142Z,21.54
2022-12-11T01:34:17.227Z,21.54
2022-12-11T01:35:21.287Z,21.51
2022-12-11T01:36:25.350Z,21.52
2022-12-11T01:37:29.431Z,21.52
2022-12-11T01:38:33.494Z,21.5
2022-12-11T01:39:37.586Z,21.51
2022-12-11T01:40:41.645Z,21.49
2022-12-11T01:41:51.264Z,21.5
2022-12-11T01:42:55.313Z,21.5
2022-12-11T01:43:59.407Z,21.48
2022-12-11T01:45:03.490Z,21.49
2022-12-11T01:46:07.625Z,21.48
2022-12-11T01:47:11.839Z,21.46
2022-12-11T01:48:15.936Z,21.47
2022-12-11T01:49:20.096Z,21.46
2022-12-11T01:50:24.164Z,21.46
2022-12-11T01:51:28.341Z,21.46
2022-12-11T01:52:32.395Z,21.46
2022-12-11T01:53:36.484Z,21.46
2022-12-11T01:54:40.596Z,21.45
2022-12-11T01:55:44.705Z,21.45
2022-12-11T01:56:48.807Z,21.43
2022-12-11T01:57:52.870Z,21.45
2022-12-11T01:58:56.926Z,21.43
2022-12-11T02:00:01.011Z,21.43
2022-12-11T02:01:05.243Z,21.42
2022-12-11T02:02:09.571Z,21.42
2022-12-11T02:03:13.793Z,21.43
2022-12-11T02:04:17.895Z,21.42
2022-12-11T02:05:21.986Z,21.41
2022-12-11T02:06:26.056Z,21.41
2022-12-11T02:07:30.126Z,21.39
2022-12-11T02:08:34.227Z,21.39
2022-12-11T02:09:38.294Z,21.41
2022-12-11T02:10:42.371Z,21.39
2022-12-11T02:11:46.422Z,21.39
2022-12-11T02:12:50.497Z,21.4
2022-12-11T02:13:54.578Z,21.4
2022-12-11T02:14:58.652Z,21.4
2022-12-11T02:16:02.754Z,21.39
2022-12-11T02:17:06.978Z,21.38
2022-12-11T02:18:11.063Z,21.37
2022-12-11T02:19:15.139Z,21.35
2022-12-11T02:20:19.203Z,21.35
2022-12-11T02:21:23.278Z,21.36
2022-12-11T02:22:27.357Z,21.35
2022-12-11T02:23:31.430Z,21.35
2022-12-11T02:24:35.515Z,21.36
2022-12-11T02:25:39.588Z,21.36
2022-12-11T02:26:43.655Z,21.36
2022-12-11T02:27:47.732Z,21.35
2022-12-11T02:28:51.795Z,21.34
2022-12-11T02:29:55.852Z,21.34
2022-12-11T02:30:59.986Z,21.32
2022-12-11T02:32:04.322Z,21.32
2022-12-11T02:33:08.453Z,21.32
2022-12-11T02:34:12.520Z,21.32
2022-12-11T02:35:16.572Z,21.3
2022-12-11T02:36:20.663Z,21.3
2022-12-11T02:37:24.743Z,21.32
2022-12-11T02:38:28.887Z,21.32
2022-12-11T02:39:32.961Z,21.31
2022-12-11T02:40:37.030Z,21.31
2022-12-11T02:41:41.161Z,21.29
2022-12-11T02:42:45.366Z,21.28
2022-12-11T02:43:49.446Z,21.3
2022-12-11T02:44:53.506Z,21.3
2022-12-11T02:45:57.678Z,21.3
2022-12-11T02:47:01.879Z,21.29
2022-12-11T02:48:05.944Z,21.3
2022-12-11T02:49:10.017Z,21.27
2022-12-11T02:50:14.109Z,21.28
2022-12-11T02:51:18.169Z,21.28
2022-12-11T02:52:22.238Z,21.28
2022-12-11T02:53:26.332Z,21.28
2022-12-11T02:54:30.400Z,21.25
2022-12-11T02:55:34.528Z,21.25
2022-12-11T02:56:38.622Z,21.26
2022-12-11T02:57:42.693Z,21.26
2022-12-11T02:58:46.793Z,21.26
2022-12-11T02:59:54.834Z,21.26
2022-12-11T03:00:58.993Z,21.26
2022-12-11T03:02:03.359Z,21.24
2022-12-11T03:03:07.625Z,21.21
2022-12-11T03:04:11.695Z,21.22
2022-12-11T03:05:15.757Z,21.2
2022-12-11T03:06:19.863Z,21.19
2022-12-11T03:07:23.943Z,21.21
2022-12-11T03:08:28.057Z,21.22
2022-12-11T03:09:32.349Z,21.2
2022-12-11T03:10:36.437Z,21.22
2022-12-11T03:11:40.554Z,21.21
2022-12-11T03:12:46.155Z,21.21
2022-12-11T03:13:56.512Z,21.23
2022-12-11T03:15:00.572Z,21.25
2022-12-11T03:16:04.700Z,21.28
2022-12-11T03:17:08.970Z,21.33
2022-12-11T03:18:13.031Z,21.36
2022-12-11T03:19:17.113Z,21.39
2022-12-11T03:20:21.193Z,21.4
2022-12-11T03:21:25.277Z,21.44
2022-12-11T03:22:29.348Z,21.46
2022-12-11T03:23:33.469Z,21.48
2022-12-11T03:24:37.552Z,21.5
2022-12-11T03:25:41.609Z,21.5
2022-12-11T03:26:45.824Z,21.55
2022-12-11T03:27:49.907Z,21.55
2022-12-11T03:28:53.975Z,21.57
2022-12-11T03:29:58.043Z,21.59
2022-12-11T03:31:02.162Z,21.61
2022-12-11T03:32:06.652Z,21.63
2022-12-11T03:33:10.710Z,21.62
2022-12-11T03:34:14.762Z,21.66
2022-12-11T03:35:18.884Z,21.67
2022-12-11T03:36:22.976Z,21.71
2022-12-11T03:37:27.041Z,21.73
2022-12-11T03:38:31.227Z,21.74
2022-12-11T03:39:35.306Z,21.78
2022-12-11T03:40:39.393Z,21.78
2022-12-11T03:41:43.458Z,21.79
2022-12-11T03:42:47.517Z,21.82
2022-12-11T03:43:51.604Z,21.83
2022-12-11T03:44:55.671Z,21.84
2022-12-11T03:45:59.752Z,21.85
2022-12-11T03:47:04.056Z,21.89
2022-12-11T03:48:08.130Z,21.92
2022-12-11T03:49:12.192Z,21.94
2022-12-11T03:50:16.265Z,21.95
2022-12-11T03:51:20.343Z,21.93
2022-12-11T03:52:24.434Z,21.93
2022-12-11T03:53:28.511Z,21.92
2022-12-11T03:54:32.574Z,21.93
2022-12-11T03:55:36.642Z,21.91
2022-12-11T03:56:40.740Z,21.9
2022-12-11T03:57:44.854Z,21.94
2022-12-11T03:58:48.936Z,21.92
2022-12-11T03:59:53.008Z,21.89
2022-12-11T04:00:57.102Z,21.9
2022-12-11T04:02:01.402Z,21.87
2022-12-11T04:03:09.637Z,21.89
2022-12-11T04:04:17.776Z,21.89
2022-12-11T04:05:22.027Z,21.83
2022-12-11T04:06:26.105Z,21.87
2022-12-11T04:07:30.192Z,21.86
2022-12-11T04:08:34.266Z,21.86
2022-12-11T04:09:38.331Z,21.85
2022-12-11T04:10:42.369Z,21.88
2022-12-11T04:11:46.423Z,21.92
2022-12-11T04:12:50.489Z,21.94
2022-12-11T04:13:54.568Z,21.93
2022-12-11T04:14:58.635Z,21.94
2022-12-11T04:16:02.763Z,21.99
2022-12-11T04:17:06.995Z,22
2022-12-11T04:18:11.067Z,22.03
2022-12-11T04:19:15.140Z,22.06
2022-12-11T04:20:19.204Z,22.08
2022-12-11T04:21:23.292Z,22.12
2022-12-11T04:22:27.345Z,22.1
2022-12-11T04:23:31.420Z,22.11
2022-12-11T04:24:35.496Z,22.11
2022-12-11T04:25:39.564Z,22.12
2022-12-11T04:26:43.647Z,22.13
2022-12-11T04:27:47.733Z,22.11
2022-12-11T04:28:51.838Z,22.1
2022-12-11T04:29:55.910Z,22.1
2022-12-11T04:31:00.012Z,22.1
2022-12-11T04:32:04.275Z,22.08
2022-12-11T04:33:08.363Z,22.06
2022-12-11T04:34:12.435Z,22.07
2022-12-11T04:35:16.527Z,22.05
2022-12-11T04:36:20.618Z,22.04
2022-12-11T04:37:24.690Z,22.04
2022-12-11T04:38:28.753Z,22.04
2022-12-11T04:39:32.841Z,22.05
2022-12-11T04:40:36.906Z,22.07
2022-12-11T04:41:41.004Z,22.09
2022-12-11T04:42:45.049Z,22.1
2022-12-11T04:43:49.137Z,22.12
2022-12-11T04:44:53.221Z,22.13
2022-12-11T04:45:57.310Z,22.16
2022-12-11T04:47:01.516Z,22.18
2022-12-11T04:48:05.571Z,22.23
2022-12-11T04:49:09.659Z,22.22
2022-12-11T04:50:13.775Z,22.24
2022-12-11T04:51:17.861Z,22.24
2022-12-11T04:52:21.933Z,22.24
2022-12-11T04:53:26.005Z,22.25
2022-12-11T04:54:30.084Z,22.24
2022-12-11T04:55:34.171Z,22.24
2022-12-11T04:56:38.232Z,22.22
2022-12-11T04:57:42.384Z,22.24
2022-12-11T04:58:46.457Z,22.19
2022-12-11T04:59:50.517Z,22.22
2022-12-11T05:00:54.610Z,22.2
2022-12-11T05:01:58.724Z,22.18
2022-12-11T05:03:03.102Z,22.19
2022-12-11T05:04:07.255Z,22.15
2022-12-11T05:05:11.535Z,22.17
2022-12-11T05:06:16.903Z,22.16
2022-12-11T05:07:21.023Z,22.18
2022-12-11T05:08:25.172Z,22.18
2022-12-11T05:09:29.414Z,22.19
2022-12-11T05:10:33.479Z,22.22
2022-12-11T05:11:37.563Z,22.21
2022-12-11T05:12:41.716Z,22.22
2022-12-11T05:13:45.785Z,22.25
2022-12-11T05:14:49.846Z,22.27
2022-12-11T05:15:54.090Z,22.3
2022-12-11T05:16:58.355Z,22.31
2022-12-11T05:18:02.445Z,22.31
2022-12-11T05:19:06.671Z,22.32
2022-12-11T05:20:10.760Z,22.34
2022-12-11T05:21:14.828Z,22.36
2022-12-11T05:22:18.913Z,22.42
2022-12-11T05:23:22.980Z,22.43
2022-12-11T05:24:27.023Z,22.44
2022-12-11T05:25:31.082Z,22.46
2022-12-11T05:26:35.181Z,22.44
2022-12-11T05:27:39.267Z,22.45
2022-12-11T05:28:43.381Z,22.42
2022-12-11T05:29:47.455Z,22.44
2022-12-11T05:30:51.619Z,22.41
2022-12-11T05:31:55.852Z,22.4
2022-12-11T05:32:59.945Z,22.42
2022-12-11T05:34:04.022Z,22.4
2022-12-11T05:35:08.350Z,22.38
2022-12-11T05:36:13.688Z,22.37
2022-12-11T05:37:17.766Z,22.36
2022-12-11T05:38:21.888Z,22.33
2022-12-11T05:39:25.985Z,22.36
2022-12-11T05:40:30.046Z,22.35
2022-12-11T05:41:34.173Z,22.34
2022-12-11T05:42:38.256Z,22.35
2022-12-11T05:43:42.347Z,22.36
2022-12-11T05:44:46.425Z,22.37
2022-12-11T05:45:50.506Z,22.39
2022-12-11T05:46:54.656Z,22.4
2022-12-11T05:47:59.026Z,22.43
2022-12-11T05:49:03.101Z,22.44
2022-12-11T05:50:07.174Z,22.46
2022-12-11T05:51:11.250Z,22.49
2022-12-11T05:52:15.339Z,22.48
2022-12-11T05:53:19.397Z,22.52
2022-12-11T05:54:23.496Z,22.56
2022-12-11T05:55:27.604Z,22.57
2022-12-11T05:56:31.712Z,22.58
2022-12-11T05:57:35.802Z,22.58
2022-12-11T05:58:39.856Z,22.61
2022-12-11T05:59:43.930Z,22.6
2022-12-11T06:00:48.020Z,22.61
2022-12-11T06:01:52.191Z,22.57
2022-12-11T06:02:56.716Z,22.59
2022-12-11T06:04:01.183Z,22.56
2022-12-11T06:05:05.277Z,22.57
2022-12-11T06:06:09.335Z,22.55
2022-12-11T06:07:13.399Z,22.51
2022-12-11T06:08:17.586Z,22.51
2022-12-11T06:09:21.847Z,22.48
2022-12-11T06:10:25.926Z,22.52
2022-12-11T06:11:29.983Z,22.52
2022-12-11T06:12:34.072Z,22.47
2022-12-11T06:13:38.158Z,22.48
2022-12-11T06:14:42.215Z,22.49
2022-12-11T06:15:46.299Z,22.48
2022-12-11T06:16:50.406Z,22.51
2022-12-11T06:17:54.730Z,22.49
2022-12-11T06:18:58.883Z,22.5
2022-12-11T06:20:03.016Z,22.47
2022-12-11T06:21:07.127Z,22.48
2022-12-11T06:22:11.230Z,22.47
2022-12-11T06:23:15.305Z,22.46
2022-12-11T06:24:19.392Z,22.46
2022-12-11T06:25:23.464Z,22.49
2022-12-11T06:26:27.549Z,22.47
2022-12-11T06:27:31.630Z,22.46
2022-12-11T06:28:35.698Z,22.48
2022-12-11T06:29:39.776Z,22.48
2022-12-11T06:30:43.834Z,22.49
2022-12-11T06:31:47.954Z,22.53
2022-12-11T06:32:52.269Z,22.57
2022-12-11T06:33:56.340Z,22.59
2022-12-11T06:35:00.435Z,22.57
2022-12-11T06:36:04.688Z,22.61
2022-12-11T06:37:08.782Z,22.65
2022-12-11T06:38:12.841Z,22.62
2022-12-11T06:39:16.911Z,22.65
2022-12-11T06:40:20.996Z,22.66
2022-12-11T06:41:25.080Z,22.69
2022-12-11T06:42:29.205Z,22.73
2022-12-11T06:43:33.263Z,22.68
2022-12-11T06:44:37.327Z,22.7
2022-12-11T06:45:41.436Z,22.74
2022-12-11T06:46:45.615Z,22.7
2022-12-11T06:47:49.696Z,22.67
2022-12-11T06:48:53.747Z,22.69
2022-12-11T06:49:57.791Z,22.7
2022-12-11T06:51:01.896Z,22.67
2022-12-11T06:52:06.028Z,22.66
2022-12-11T06:53:10.117Z,22.67
2022-12-11T06:54:14.196Z,22.65
2022-12-11T06:55:18.255Z,22.63
2022-12-11T06:56:22.332Z,22.64
2022-12-11T06:57:26.407Z,22.61
2022-12-11T06:58:32.894Z,22.58
2022-12-11T06:59:42.789Z,22.58
2022-12-11T07:00:47.079Z,22.61
2022-12-11T07:01:51.370Z,22.64
2022-12-11T07:02:55.639Z,22.66
2022-12-11T07:03:59.700Z,22.66
2022-12-11T07:05:03.775Z,22.67
2022-12-11T07:06:07.858Z,22.69
2022-12-11T07:07:11.912Z,22.71
2022-12-11T07:08:16.022Z,22.72
2022-12-11T07:09:20.298Z,22.73
2022-12-11T07:10:24.355Z,22.76
2022-12-11T07:11:28.416Z,22.77
2022-12-11T07:12:32.503Z,22.75
2022-12-11T07:13:36.560Z,22.76
2022-12-11T07:14:40.648Z,22.75
2022-12-11T07:15:44.739Z,22.73
2022-12-11T07:16:48.842Z,22.73
2022-12-11T07:17:53.039Z,22.72
2022-12-11T07:18:57.101Z,22.72
2022-12-11T07:20:01.182Z,22.7
2022-12-11T07:21:05.257Z,22.7
2022-12-11T07:22:09.323Z,22.67
2022-12-11T07:23:13.396Z,22.67
2022-12-11T07:24:17.467Z,22.64
2022-12-11T07:25:21.559Z,22.64
2022-12-11T07:26:25.670Z,22.62
2022-12-11T07:27:29.753Z,22.64
2022-12-11T07:28:33.814Z,22.66
2022-12-11T07:29:37.924Z,22.66
2022-12-11T07:30:42.027Z,22.68
2022-12-11T07:31:46.164Z,22.69
2022-12-11T07:32:50.521Z,22.7
2022-12-11T07:33:54.820Z,22.73
2022-12-11T07:34:58.896Z,22.71
2022-12-11T07:36:02.987Z,22.73
2022-12-11T07:37:07.064Z,22.7
2022-12-11T07:38:11.138Z,22.68
2022-12-11T07:39:15.224Z,22.7
2022-12-11T07:40:19.298Z,22.64
2022-12-11T07:41:23.375Z,22.69
2022-12-11T07:42:27.437Z,22.66
2022-12-11T07:43:31.537Z,22.67
2022-12-11T07:44:35.630Z,22.66
2022-12-11T07:45:39.731Z,22.63
2022-12-11T07:46:43.885Z,22.63
2022-12-11T07:47:47.960Z,22.62
2022-12-11T07:48:52.036Z,22.61
2022-12-11T07:49:56.096Z,22.6
2022-12-11T07:51:00.158Z,22.57
2022-12-11T07:52:04.251Z,22.54
2022-12-11T07:53:08.344Z,22.51
2022-12-11T07:54:12.422Z,22.5
2022-12-11T07:55:16.508Z,22.52
2022-12-11T07:56:20.608Z,22.49
2022-12-11T07:57:24.663Z,22.47
2022-12-11T07:58:28.764Z,22.46
2022-12-11T07:59:32.822Z,22.46
2022-12-11T08:00:36.917Z,22.46
2022-12-11T08:01:41.050Z,22.44
2022-12-11T08:02:45.277Z,22.43
2022-12-11T08:03:49.441Z,22.42
2022-12-11T08:04:53.505Z,22.4
2022-12-11T08:05:57.586Z,22.39
2022-12-11T08:07:01.673Z,22.37
2022-12-11T08:08:05.765Z,22.39
2022-12-11T08:09:09.955Z,22.35
2022-12-11T08:10:23.669Z,22.36
2022-12-11T08:11:27.856Z,22.34
2022-12-11T08:12:31.943Z,22.32
2022-12-11T08:13:36.055Z,22.33
2022-12-11T08:14:40.126Z,22.32
2022-12-11T08:15:44.205Z,22.29
2022-12-11T08:16:48.388Z,22.3
2022-12-11T08:17:52.689Z,22.29
2022-12-11T08:18:56.789Z,22.28
2022-12-11T08:20:00.859Z,22.28
2022-12-11T08:21:04.945Z,22.28
2022-12-11T08:22:09.024Z,22.25
2022-12-11T08:23:13.106Z,22.25
2022-12-11T08:24:17.174Z,22.25
2022-12-11T08:25:21.265Z,22.24
2022-12-11T08:26:25.342Z,22.24
2022-12-11T08:27:29.423Z,22.23
2022-12-11T08:28:33.495Z,22.2
2022-12-11T08:29:37.563Z,22.19
2022-12-11T08:30:41.673Z,22.19
2022-12-11T08:31:45.897Z,22.17
2022-12-11T08:32:49.972Z,22.17
2022-12-11T08:33:54.113Z,22.17
2022-12-11T08:34:58.228Z,22.16
2022-12-11T08:36:02.366Z,22.14
2022-12-11T08:37:06.468Z,22.15
2022-12-11T08:38:10.621Z,22.14
2022-12-11T08:39:14.736Z,22.13
2022-12-11T08:40:18.831Z,22.1
2022-12-11T08:41:22.905Z,22.1
2022-12-11T08:42:26.992Z,22.1
2022-12-11T08:43:31.069Z,22.09
2022-12-11T08:44:35.133Z,22.08
2022-12-11T08:45:39.215Z,22.07
2022-12-11T08:46:43.428Z,22.07
2022-12-11T08:47:47.641Z,22.04
2022-12-11T08:48:51.718Z,22.04
2022-12-11T08:49:55.851Z,22.05
2022-12-11T08:51:00.101Z,22.04
2022-12-11T08:52:04.186Z,22.01
2022-12-11T08:53:08.290Z,22.03
2022-12-11T08:54:12.384Z,21.99
2022-12-11T08:55:16.505Z,22.01
2022-12-11T08:56:20.598Z,21.98
2022-12-11T08:57:27.418Z,21.99
2022-12-11T08:58:31.489Z,21.98
2022-12-11T08:59:35.592Z,21.98
2022-12-11T09:00:54.517Z,21.97
2022-12-11T09:02:02.265Z,21.96
2022-12-11T09:03:11.268Z,21.95
2022-12-11T09:04:19.814Z,21.95
2022-12-11T09:05:30.196Z,21.95
2022-12-11T09:06:37.046Z,21.92
2022-12-11T09:07:43.768Z,21.93
2022-12-11T09:08:52.458Z,21.92
2022-12-11T09:09:56.899Z,21.91
2022-12-11T09:29:21.816Z,21.8
2022-12-11T09:30:25.901Z,21.77
2022-12-11T09:31:36.210Z,21.76
2022-12-11T09:33:01.427Z,21.77
2022-12-11T09:34:05.574Z,21.75
2022-12-11T09:35:09.952Z,21.77
2022-12-11T09:36:15.308Z,21.75
2022-12-11T09:37:19.360Z,21.76
2022-12-11T09:38:23.422Z,21.74
2022-12-11T09:39:27.501Z,21.73
2022-12-11T09:40:31.580Z,21.73
2022-12-11T09:41:35.690Z,21.72
2022-12-11T09:42:39.780Z,21.71
2022-12-11T09:43:43.859Z,21.69
2022-12-11T09:44:47.964Z,21.71
2022-12-11T09:45:52.084Z,21.68
2022-12-11T09:46:56.376Z,21.69
2022-12-11T09:48:00.649Z,21.69
2022-12-11T09:49:04.743Z,21.67
2022-12-11T09:50:08.827Z,21.67
2022-12-11T09:51:13.023Z,21.68
2022-12-11T09:52:17.117Z,21.66
2022-12-11T09:53:21.215Z,21.68
2022-12-11T09:54:25.305Z,21.66
2022-12-11T09:55:29.378Z,21.66
2022-12-11T09:56:33.486Z,21.68
2022-12-11T09:57:37.539Z,21.67
2022-12-11T09:58:41.632Z,21.66
2022-12-11T09:59:45.740Z,21.63
2022-12-11T10:00:49.898Z,21.63
2022-12-11T10:01:53.974Z,21.64
2022-12-11T10:02:58.168Z,21.63
2022-12-11T10:04:02.455Z,21.63
2022-12-11T10:05:06.520Z,21.6
2022-12-11T10:06:10.900Z,21.61
2022-12-11T10:07:14.964Z,21.62
2022-12-11T10:08:19.117Z,21.63
2022-12-11T10:09:23.420Z,21.6
2022-12-11T10:10:27.530Z,21.58
2022-12-11T10:11:31.602Z,21.58
2022-12-11T10:12:35.684Z,21.57
2022-12-11T10:13:39.749Z,21.54
2022-12-11T10:14:43.844Z,21.56
2022-12-11T10:15:48.210Z,21.51
2022-12-11T10:16:52.452Z,21.47
2022-12-11T10:17:59.961Z,21.43
2022-12-11T10:19:08.546Z,21.41
2022-12-11T10:20:12.635Z,21.43
2022-12-11T10:21:16.709Z,21.41
2022-12-11T10:22:20.760Z,21.36
2022-12-11T10:23:24.826Z,21.38
2022-12-11T10:24:57.802Z,21.38
2022-12-11T10:26:15.138Z,21.39
2022-12-11T10:27:19.294Z,21.37
2022-12-11T10:28:23.426Z,21.37
2022-12-11T10:29:27.505Z,21.36
2022-12-11T10:30:34.427Z,21.3
2022-12-11T10:31:38.782Z,21.29
2022-12-11T10:32:42.880Z,21.28
2022-12-11T10:33:46.954Z,21.28
2022-12-11T10:34:51.008Z,21.28
2022-12-11T10:35:55.090Z,21.26
2022-12-11T10:37:00.622Z,21.26
2022-12-11T10:38:05.023Z,21.26
2022-12-11T10:39:09.085Z,21.24
2022-12-11T10:40:13.160Z,21.24
2022-12-11T10:41:17.236Z,21.23
2022-12-11T10:42:21.305Z,21.22
2022-12-11T10:43:25.362Z,21.19
2022-12-11T10:44:29.418Z,21.21
2022-12-11T10:45:33.484Z,21.14
2022-12-11T10:46:37.605Z,21.13
2022-12-11T10:47:41.894Z,21.05
2022-12-11T10:48:45.973Z,21.07
2022-12-11T10:49:50.033Z,21.11
2022-12-11T10:50:54.115Z,21.15
2022-12-11T10:51:58.210Z,21.16
2022-12-11T10:53:02.297Z,21.16
2022-12-11T10:54:07.388Z,21.1
2022-12-11T10:55:11.784Z,21.1
2022-12-11T10:56:16.353Z,20.99
2022-12-11T10:57:20.470Z,21.04
2022-12-11T10:58:24.525Z,21.02
2022-12-11T10:59:28.605Z,21.02
2022-12-11T11:00:32.695Z,21.01
2022-12-11T11:01:36.916Z,20.96
2022-12-11T11:02:41.235Z,20.92
2022-12-11T11:03:45.540Z,20.92
2022-12-11T11:04:49.633Z,20.92
2022-12-11T11:05:53.694Z,20.9
2022-12-11T11:06:57.838Z,20.86
2022-12-11T11:08:01.963Z,20.87
2022-12-11T11:09:06.181Z,20.88
2022-12-11T11:10:10.238Z,20.84
2022-12-11T11:11:14.369Z,20.83
2022-12-11T11:12:18.424Z,20.82
2022-12-11T11:13:22.495Z,20.82
2022-12-11T11:14:26.583Z,20.8
2022-12-11T11:15:30.675Z,20.75
2022-12-11T11:16:34.769Z,20.74
2022-12-11T11:17:46.169Z,20.75
2022-12-11T11:18:58.572Z,20.73
2022-12-11T11:20:02.651Z,20.74
2022-12-11T11:21:06.760Z,20.73
2022-12-11T11:22:10.846Z,20.73
2022-12-11T11:23:14.988Z,20.75
2022-12-11T11:24:19.099Z,20.74
2022-12-11T11:25:23.184Z,20.75
2022-12-11T11:26:38.371Z,20.74
2022-12-11T11:28:16.468Z,20.72
2022-12-11T11:29:20.571Z,20.7
2022-12-11T11:30:24.655Z,20.73
2022-12-11T11:31:28.733Z,20.69
2022-12-11T11:32:33.005Z,20.7
2022-12-11T11:33:37.101Z,20.61
2022-12-11T11:34:41.202Z,20.68
2022-12-11T11:35:45.820Z,20.68
2022-12-11T11:36:50.004Z,20.68
2022-12-11T11:37:54.086Z,20.67
2022-12-11T11:38:58.149Z,20.68
2022-12-11T11:40:02.211Z,20.68
2022-12-11T11:41:10.190Z,20.67
2022-12-11T11:42:18.532Z,20.67
2022-12-11T11:43:22.624Z,20.69
2022-12-11T11:44:26.705Z,20.72
2022-12-11T11:45:30.766Z,20.71
2022-12-11T11:46:34.882Z,20.72
2022-12-11T11:47:39.230Z,20.73
2022-12-11T11:48:43.300Z,20.74
2022-12-11T11:49:47.372Z,20.74
2022-12-11T11:50:51.457Z,20.74
2022-12-11T11:51:55.528Z,20.73
2022-12-11T11:52:59.621Z,20.71
2022-12-11T11:54:03.688Z,20.7
2022-12-11T11:55:07.780Z,20.7
2022-12-11T11:56:12.955Z,20.7
2022-12-11T11:57:17.037Z,20.5
2022-12-11T11:58:21.110Z,20.7
2022-12-11T11:59:25.246Z,20.71
2022-12-11T12:00:33.517Z,20.71
2022-12-11T12:01:37.966Z,20.73
2022-12-11T12:02:42.100Z,20.74
2022-12-11T12:03:46.313Z,20.75
2022-12-11T12:04:50.394Z,20.79
2022-12-11T12:05:54.513Z,20.79
2022-12-11T12:06:58.568Z,20.78
2022-12-11T12:08:02.720Z,20.8
2022-12-11T12:09:06.930Z,20.81
2022-12-11T12:10:11.094Z,20.82
2022-12-11T12:11:15.575Z,20.84
2022-12-11T12:12:25.658Z,20.83
2022-12-11T12:13:52.259Z,20.86
2022-12-11T12:14:56.439Z,20.86
2022-12-11T12:16:00.580Z,20.87
2022-12-11T12:17:04.896Z,20.87
2022-12-11T12:18:11.482Z,20.88
2022-12-11T12:19:15.537Z,20.89
2022-12-11T12:20:19.617Z,20.91
2022-12-11T12:21:23.663Z,20.92
2022-12-11T12:22:27.746Z,20.92
2022-12-11T12:23:36.403Z,20.92
2022-12-11T12:24:40.751Z,20.91
2022-12-11T12:25:44.918Z,20.93
2022-12-11T12:26:48.985Z,20.92
2022-12-11T12:27:53.380Z,20.94
2022-12-11T12:28:57.578Z,20.91
2022-12-11T12:30:01.666Z,20.92
2022-12-11T12:31:05.799Z,20.94
2022-12-11T12:32:10.131Z,20.96
2022-12-11T12:33:14.218Z,20.97
2022-12-11T12:34:18.345Z,20.97
2022-12-11T12:35:22.411Z,20.96
2022-12-11T12:36:26.458Z,20.99
2022-12-11T12:37:30.535Z,21.08
2022-12-11T12:38:34.652Z,21.26
2022-12-11T12:39:38.724Z,21.38
2022-12-11T12:40:42.852Z,21.47
2022-12-11T12:41:46.946Z,21.54
2022-12-11T12:42:51.043Z,21.63
2022-12-11T12:43:55.201Z,21.58
2022-12-11T12:44:59.536Z,21.59
2022-12-11T12:46:03.732Z,21.6
2022-12-11T12:47:08.015Z,21.59
2022-12-11T12:48:12.196Z,21.6
2022-12-11T12:49:16.351Z,21.59
2022-12-11T12:50:20.500Z,21.59
2022-12-11T12:51:24.569Z,21.63
2022-12-11T12:52:28.634Z,21.69
2022-12-11T12:53:32.716Z,21.71
2022-12-11T12:54:36.782Z,21.71
2022-12-11T12:55:40.899Z,21.78
2022-12-11T12:56:44.958Z,21.8
2022-12-11T12:57:49.009Z,21.85
2022-12-11T12:58:53.115Z,21.69
2022-12-11T12:59:57.174Z,21.89
2022-12-11T13:01:01.276Z,21.94
2022-12-11T13:02:05.556Z,21.94
2022-12-11T13:03:09.836Z,21.96
2022-12-11T13:04:32.600Z,21.99
2022-12-11T13:05:59.350Z,22.03
2022-12-11T13:07:03.445Z,22.09
2022-12-11T13:08:07.544Z,22.09
2022-12-11T13:09:11.786Z,22.13
2022-12-11T13:10:15.884Z,22.16
2022-12-11T13:11:19.953Z,22.18
2022-12-11T13:12:24.036Z,22.18
2022-12-11T13:13:28.099Z,22.18
2022-12-11T13:14:32.186Z,22.17
2022-12-11T13:15:36.247Z,22.15
2022-12-11T13:16:40.340Z,22.12
2022-12-11T13:17:44.648Z,22.15
2022-12-11T13:18:48.762Z,22.14
2022-12-11T13:19:52.819Z,22.12
2022-12-11T13:20:56.876Z,22.07
2022-12-11T13:22:01.050Z,22
2022-12-11T13:23:05.903Z,22.03
2022-12-11T13:24:09.963Z,22.04
2022-12-11T13:25:20.853Z,22.03
2022-12-11T13:26:28.446Z,22.07
2022-12-11T13:27:32.651Z,22.12
2022-12-11T13:28:39.637Z,22.14
2022-12-11T13:29:43.705Z,22.17
2022-12-11T13:30:50.574Z,22.26
2022-12-11T13:32:00.506Z,22.3
2022-12-11T13:33:04.832Z,22.3
2022-12-11T13:34:08.935Z,22.37
2022-12-11T13:35:13.299Z,22.39
2022-12-11T13:36:21.458Z,22.39
2022-12-11T13:37:28.397Z,22.43
2022-12-11T13:38:32.514Z,22.49
2022-12-11T13:39:36.582Z,22.38
2022-12-11T13:40:40.675Z,22.51
2022-12-11T13:41:44.832Z,22.56
2022-12-11T13:42:48.991Z,22.52
2022-12-11T13:43:53.073Z,22.55
2022-12-11T13:44:57.147Z,22.61
2022-12-11T13:46:01.319Z,22.64
2022-12-11T13:47:05.632Z,22.65
2022-12-11T13:48:12.801Z,22.67
2022-12-11T13:49:20.215Z,22.68
2022-12-11T13:50:24.282Z,22.65
2022-12-11T13:51:28.337Z,22.59
2022-12-11T13:52:32.424Z,22.57
2022-12-11T13:53:36.582Z,22.56
2022-12-11T13:54:44.057Z,22.56
2022-12-11T13:55:48.735Z,22.5
2022-12-11T13:56:52.822Z,22.45
2022-12-11T13:57:56.877Z,22.45
2022-12-11T13:59:00.955Z,22.41
2022-12-11T14:00:05.036Z,22.44
2022-12-11T14:01:09.349Z,22.45
2022-12-11T14:02:13.699Z,22.46
2022-12-11T14:03:17.989Z,22.48
2022-12-11T14:04:22.052Z,22.5
2022-12-11T14:05:26.125Z,22.54
2022-12-11T14:06:30.203Z,22.57
2022-12-11T14:07:34.264Z,22.58
2022-12-11T14:08:38.355Z,22.61
2022-12-11T14:09:43.420Z,22.62
2022-12-11T14:10:47.595Z,22.67
2022-12-11T14:11:56.577Z,22.67
2022-12-11T14:13:00.912Z,22.7